Maldives Meteorological Service

METAR

Station
VRMM
METAR VRMM 030700Z 06010KT 9999 FEW018 32/23 Q1010 NOSIG=
VRMH
METAR VRMH 030700Z 06007KT 9999 FEW018 32/24 Q1011=
VRMK
METAR VRMK 030700Z 04008KT 9999 FEW018 32/26 Q1010=
VRMT
METAR VRMT 030700Z 36005KT 9999 FEW018 FEW019CB 32/27 Q1009 CB SSE=
VRMG
METAR VRMG 030700Z 04004KT 9999 FEW018 SCT120 31/26 Q1009 NOSIG=
Last Updated : 2020-04-03 11:59:47

SPECI

Station
VRMM
VRMH
VRMK
VRMT
VRMG
Last Updated : 2020-04-03 11:59:47